Time;durP1;ratioP1;P1;durP2;ratioP2;P2;SDS_P1;SDS_P2;PMS_P1;PMS_P2;Temp;Humidity;BMP_temperature;BMP_pressure;BME280_temperature;BME280_humidity;BME280_pressure;Samples;Min_cycle;Max_cycle;Signal;HPM_P1;HPM_P2
2023/07/09 00:01:26;;;;;;;;;;;;;;;23.18;60.45;98938.38;5060286;27;103184;-78
2023/07/09 00:03:54;;;;;;;;;;;;;;;23.18;61.04;98934.84;5057656;27;103043;-77
2023/07/09 00:06:22;;;;;;;;;;;;;;;23.10;61.26;98936.59;5041558;27;103342;-77
2023/07/09 00:08:50;;;;;;;;;;;;;;;23.05;62.01;98932.78;5039216;27;103405;-78
2023/07/09 00:11:19;;;;;;;;;;;;;;;22.92;63.78;98928.03;5056694;27;103450;-78
2023/07/09 00:13:47;;;;;;;;;;;;;;;22.89;63.20;98932.94;5047388;27;102698;-78
2023/07/09 00:16:16;;;;;;;;;;;;;;;22.86;63.47;98933.31;5054038;27;104033;-78
2023/07/09 00:18:44;;;;;;;;;;;;;;;22.49;65.29;98937.63;5051421;27;103243;-77
2023/07/09 00:21:12;;;;;;;;;;;;;;;22.52;64.44;98945.34;5054218;27;102738;-77
2023/07/09 00:23:41;;;;;;;;;;;;;;;22.62;63.47;98936.19;5059472;27;103874;-77
2023/07/09 00:26:09;;;;;;;;;;;;;;;22.67;62.85;98940.06;5042337;27;104056;-77
2023/07/09 00:28:38;;;;;;;;;;;;;;;22.67;63.46;98944.59;5061715;27;103214;-77
2023/07/09 00:31:10;;;;;;;;;;;;;;;22.68;62.83;98940.91;5043610;27;102839;-77
2023/07/09 00:33:38;;;;;;;;;;;;;;;22.65;64.07;98946.66;5044643;27;103672;-78
2023/07/09 00:36:14;;;;;;;;;;;;;;;22.63;64.03;98946.78;5049076;27;104228;-78
2023/07/09 00:38:47;;;;;;;;;;;;;;;22.65;63.80;98949.34;5046891;27;104194;-77
2023/07/09 00:41:18;;;;;;;;;;;;;;;22.56;64.51;98942.31;5058906;27;102712;-77
2023/07/09 00:43:48;;;;;;;;;;;;;;;22.36;65.55;98945.50;5047163;27;102764;-78
2023/07/09 00:46:30;;;;;;;;;;;;;;;22.14;67.90;98954.38;5044603;27;103710;-77
2023/07/09 00:49:01;;;;;;;;;;;;;;;22.16;67.18;98951.50;5044159;27;104098;-77
2023/07/09 00:51:30;;;;;;;;;;;;;;;21.86;68.26;98962.09;5041386;27;102765;-77
2023/07/09 00:53:59;;;;;;;;;;;;;;;22.11;66.22;98956.59;5048193;27;103746;-77
2023/07/09 00:56:28;;;;;;;;;;;;;;;22.21;64.91;98952.66;5043719;27;104036;-77
2023/07/09 00:59:00;;;;;;;;;;;;;;;22.25;65.42;98953.97;5041309;27;104089;-78
2023/07/09 01:01:28;;;;;;;;;;;;;;;22.17;65.80;98962.13;5039772;27;103002;-77
2023/07/09 01:03:59;;;;;;;;;;;;;;;22.08;65.51;98954.25;5057974;27;104034;-77
2023/07/09 01:06:32;;;;;;;;;;;;;;;22.14;64.88;98958.94;5061379;27;103262;-77
2023/07/09 01:09:00;;;;;;;;;;;;;;;22.04;66.53;98955.59;5057718;27;103302;-78
2023/07/09 01:11:33;;;;;;;;;;;;;;;21.97;66.45;98957.34;5041039;27;102894;-77
2023/07/09 01:14:03;;;;;;;;;;;;;;;21.89;67.01;98967.13;5038508;27;102938;-77
2023/07/09 01:16:32;;;;;;;;;;;;;;;22.00;65.78;98962.38;5062778;27;103267;-77
2023/07/09 01:19:01;;;;;;;;;;;;;;;22.02;65.49;98965.72;5059257;27;103200;-78
2023/07/09 01:21:30;;;;;;;;;;;;;;;22.07;65.40;98964.16;5046923;27;102736;-77
2023/07/09 01:23:58;;;;;;;;;;;;;;;22.09;64.90;98964.81;5044098;27;103354;-78
2023/07/09 01:26:26;;;;;;;;;;;;;;;22.09;65.13;98961.31;5038962;27;104900;-77
2023/07/09 01:28:55;;;;;;;;;;;;;;;22.07;65.23;98963.31;5040821;27;102978;-78
2023/07/09 01:31:23;;;;;;;;;;;;;;;21.89;67.60;98960.94;5061567;27;102677;-77
2023/07/09 01:33:51;;;;;;;;;;;;;;;21.45;70.02;98963.25;5060805;27;103608;-77
2023/07/09 01:36:22;;;;;;;;;;;;;;;21.46;69.74;98964.09;5046398;27;103909;-77
2023/07/09 01:38:54;;;;;;;;;;;;;;;21.37;69.97;98958.75;5045134;27;103256;-77
2023/07/09 01:41:22;;;;;;;;;;;;;;;21.30;69.83;98965.00;5043678;27;102831;-77
2023/07/09 01:43:51;;;;;;;;;;;;;;;21.48;67.76;98962.91;5043358;27;104034;-76
2023/07/09 01:46:19;;;;;;;;;;;;;;;21.51;68.13;98956.34;5056448;27;103236;-77
2023/07/09 01:48:50;;;;;;;;;;;;;;;21.60;66.86;98960.69;5061602;27;103297;-77
2023/07/09 01:51:18;;;;;;;;;;;;;;;21.64;65.43;98959.34;5048380;27;102943;-77
2023/07/09 01:53:45;;;;;;;;;;;;;;;21.60;67.68;98955.31;5043230;27;102725;-77
2023/07/09 01:56:14;;;;;;;;;;;;;;;21.60;67.27;98960.69;5055524;27;103220;-77
2023/07/09 01:58:42;;;;;;;;;;;;;;;21.45;69.55;98957.03;5033669;27;103186;-76
2023/07/09 02:01:11;;;;;;;;;;;;;;;21.30;68.63;98960.47;5043245;27;102699;-77
2023/07/09 02:03:39;;;;;;;;;;;;;;;21.14;69.19;98960.47;5039882;27;103967;-76
2023/07/09 02:06:09;;;;;;;;;;;;;;;21.33;67.40;98970.03;5052277;27;104095;-78
2023/07/09 02:08:38;;;;;;;;;;;;;;;21.41;67.42;98974.53;5039280;27;103195;-78
2023/07/09 02:11:05;;;;;;;;;;;;;;;21.45;67.31;98981.22;5041893;27;102700;-78
2023/07/09 02:13:34;;;;;;;;;;;;;;;21.54;66.53;98982.88;5041306;27;102824;-77
2023/07/09 02:16:02;;;;;;;;;;;;;;;21.42;66.78;98973.53;5046683;27;102986;-77
2023/07/09 02:18:30;;;;;;;;;;;;;;;21.36;67.82;98975.88;5054867;27;103271;-78
2023/07/09 02:21:00;;;;;;;;;;;;;;;21.34;68.31;98974.38;5056145;27;102600;-78
2023/07/09 02:23:29;;;;;;;;;;;;;;;21.30;68.05;98971.22;5041990;27;103027;-77
2023/07/09 02:25:58;;;;;;;;;;;;;;;21.32;67.83;98963.81;5061486;27;103318;-77
2023/07/09 02:28:26;;;;;;;;;;;;;;;21.10;69.76;98974.44;5035624;27;103420;-78
2023/07/09 02:30:55;;;;;;;;;;;;;;;20.97;69.97;98964.16;5048330;27;102734;-77
2023/07/09 02:33:23;;;;;;;;;;;;;;;21.02;68.92;98972.59;5060970;27;104019;-78
2023/07/09 02:35:51;;;;;;;;;;;;;;;21.01;68.87;98975.41;5052890;27;103235;-77
2023/07/09 02:38:18;;;;;;;;;;;;;;;21.13;68.22;98972.25;5044087;27;103150;-78
2023/07/09 02:40:47;;;;;;;;;;;;;;;21.20;68.16;98981.28;5041383;27;102645;-78
2023/07/09 02:43:15;;;;;;;;;;;;;;;21.20;67.94;98978.59;5053384;27;102756;-78
2023/07/09 02:45:43;;;;;;;;;;;;;;;21.16;69.05;98979.97;5034656;27;104233;-77
2023/07/09 02:48:13;;;;;;;;;;;;;;;21.25;66.36;98989.66;5041366;27;104894;-77
2023/07/09 02:50:41;;;;;;;;;;;;;;;21.23;68.10;98982.78;5037615;27;103853;-77
2023/07/09 02:53:08;;;;;;;;;;;;;;;21.16;69.55;98989.88;5058741;27;102602;-77
2023/07/09 02:55:36;;;;;;;;;;;;;;;21.01;69.97;98991.53;5043577;27;104052;-77
2023/07/09 02:58:04;;;;;;;;;;;;;;;20.88;70.75;98991.22;5041258;27;104131;-77
2023/07/09 03:00:31;;;;;;;;;;;;;;;20.95;70.19;98997.59;5060900;27;102886;-77
2023/07/09 03:02:59;;;;;;;;;;;;;;;21.04;68.62;98999.25;5063515;27;102822;-76
2023/07/09 03:05:28;;;;;;;;;;;;;;;21.10;68.10;99001.31;5044622;27;104175;-76
2023/07/09 03:07:56;;;;;;;;;;;;;;;21.14;68.56;98992.72;5055680;27;103299;-76
2023/07/09 03:10:24;;;;;;;;;;;;;;;21.08;67.92;98988.03;5041679;27;103456;-77
2023/07/09 03:12:51;;;;;;;;;;;;;;;20.91;71.09;98999.78;5058078;27;103913;-77
2023/07/09 03:15:19;;;;;;;;;;;;;;;20.74;71.77;98998.13;5045727;27;103325;-77
2023/07/09 03:17:47;;;;;;;;;;;;;;;20.67;71.61;99007.81;5032734;27;104061;-76
2023/07/09 03:20:14;;;;;;;;;;;;;;;20.67;72.47;99003.31;5040236;27;103852;-77
2023/07/09 03:22:44;;;;;;;;;;;;;;;20.65;72.53;98996.41;5042586;27;102675;-76
2023/07/09 03:25:11;;;;;;;;;;;;;;;20.80;71.26;98994.72;5038664;27;104172;-77
2023/07/09 03:27:41;;;;;;;;;;;;;;;20.70;72.05;98989.53;5038370;27;104804;-76
2023/07/09 03:30:09;;;;;;;;;;;;;;;20.76;71.62;98991.56;5040580;27;103051;-76
2023/07/09 03:32:37;;;;;;;;;;;;;;;20.89;68.69;98991.03;5063396;27;102671;-76
2023/07/09 03:35:05;;;;;;;;;;;;;;;21.00;70.45;98995.22;5041221;27;103336;-77
2023/07/09 03:37:32;;;;;;;;;;;;;;;21.00;70.05;99001.44;5058874;27;103245;-76
2023/07/09 03:40:03;;;;;;;;;;;;;;;21.04;70.59;98997.41;5041498;27;103072;-76
2023/07/09 03:42:31;;;;;;;;;;;;;;;20.97;71.56;99007.13;5059084;27;102682;-76
2023/07/09 03:44:59;;;;;;;;;;;;;;;20.83;71.84;99015.06;5060165;27;103921;-77
2023/07/09 03:47:26;;;;;;;;;;;;;;;20.74;72.42;99017.72;5042554;27;103193;-76
2023/07/09 03:49:54;;;;;;;;;;;;;;;20.95;70.81;99013.69;5060435;27;102624;-76
2023/07/09 03:52:22;;;;;;;;;;;;;;;21.08;69.63;99009.50;5041140;27;104384;-76
2023/07/09 03:54:50;;;;;;;;;;;;;;;21.15;68.34;99010.53;5058304;27;103267;-76
2023/07/09 03:57:18;;;;;;;;;;;;;;;21.16;69.83;99014.06;5057453;27;103185;-77
2023/07/09 03:59:46;;;;;;;;;;;;;;;21.07;70.58;99013.22;5058958;27;102803;-77
2023/07/09 04:02:14;;;;;;;;;;;;;;;21.00;71.29;99017.53;5055582;27;104180;-77
2023/07/09 04:04:41;;;;;;;;;;;;;;;21.12;70.02;99018.06;5060108;27;103359;-76
2023/07/09 04:07:09;;;;;;;;;;;;;;;21.17;70.26;99021.09;5059548;27;103222;-77
2023/07/09 04:09:39;;;;;;;;;;;;;;;21.23;70.53;99013.19;5041974;27;102699;-76
2023/07/09 04:12:07;;;;;;;;;;;;;;;21.19;71.05;99019.91;5056315;27;104255;-76
2023/07/09 04:14:36;;;;;;;;;;;;;;;21.22;70.21;99016.06;5061883;27;103375;-76
2023/07/09 04:17:04;;;;;;;;;;;;;;;21.28;70.51;99012.66;5061073;27;103180;-76
2023/07/09 04:19:32;;;;;;;;;;;;;;;21.28;70.28;99015.34;5039027;27;102756;-76
2023/07/09 04:22:00;;;;;;;;;;;;;;;21.35;69.75;99022.59;5054509;27;104417;-76
2023/07/09 04:24:28;;;;;;;;;;;;;;;21.35;69.71;99022.59;5048683;27;104084;-76
2023/07/09 04:26:56;;;;;;;;;;;;;;;21.41;69.23;99023.75;5062150;27;103108;-76
2023/07/09 04:29:24;;;;;;;;;;;;;;;21.43;68.89;99020.88;5041716;27;102605;-76
2023/07/09 04:31:53;;;;;;;;;;;;;;;21.59;67.77;99023.50;5054933;27;103071;-76
2023/07/09 04:34:20;;;;;;;;;;;;;;;21.68;67.30;99028.69;5057322;27;102932;-76
2023/07/09 04:36:48;;;;;;;;;;;;;;;21.72;68.74;99026.50;5062875;27;103156;-76
2023/07/09 04:39:15;;;;;;;;;;;;;;;21.79;67.60;99024.78;5059529;27;102894;-76
2023/07/09 04:41:43;;;;;;;;;;;;;;;21.86;67.82;99025.78;5045403;27;103638;-76
2023/07/09 04:44:11;;;;;;;;;;;;;;;21.82;67.70;99024.44;5040355;27;104052;-77
2023/07/09 04:46:39;;;;;;;;;;;;;;;21.88;69.02;99023.78;5060097;27;103242;-77
2023/07/09 04:49:12;;;;;;;;;;;;;;;21.95;68.18;99022.09;5055480;27;102917;-77
2023/07/09 04:51:40;;;;;;;;;;;;;;;22.09;67.57;99031.28;5043319;27;103071;-74
2023/07/09 04:54:07;;;;;;;;;;;;;;;22.22;67.46;99029.69;5056994;27;103251;-72
2023/07/09 04:56:36;;;;;;;;;;;;;;;22.19;67.83;99032.72;5055302;27;103135;-72
2023/07/09 04:59:04;;;;;;;;;;;;;;;22.31;67.00;99034.00;5054632;27;102691;-73
2023/07/09 05:01:31;;;;;;;;;;;;;;;22.32;67.54;99032.97;5051481;27;104005;-72
2023/07/09 05:03:59;;;;;;;;;;;;;;;22.40;69.04;99027.53;5044017;27;104449;-72
2023/07/09 05:06:28;;;;;;;;;;;;;;;22.49;68.80;99034.56;5057156;27;103117;-72
2023/07/09 05:08:56;;;;;;;;;;;;;;;22.53;67.15;99040.44;5046795;27;102732;-72
2023/07/09 05:11:23;;;;;;;;;;;;;;;22.46;68.02;99040.28;5034983;27;104280;-73
2023/07/09 05:13:51;;;;;;;;;;;;;;;22.48;72.90;99043.63;5059590;27;104160;-73
2023/07/09 05:16:20;;;;;;;;;;;;;;;22.51;72.53;99042.47;5051148;27;103283;-73
2023/07/09 05:18:48;;;;;;;;;;;;;;;22.56;70.71;99044.63;5059582;27;102693;-72
2023/07/09 05:21:16;;;;;;;;;;;;;;;22.60;68.48;99046.75;5054503;27;105014;-73
2023/07/09 05:23:45;;;;;;;;;;;;;;;22.71;69.85;99050.94;5044546;27;103930;-72
2023/07/09 05:26:12;;;;;;;;;;;;;;;22.81;67.75;99054.22;5045525;27;103932;-73
2023/07/09 05:28:40;;;;;;;;;;;;;;;22.72;67.09;99049.91;5060481;27;102682;-72
2023/07/09 05:31:08;;;;;;;;;;;;;;;22.84;66.37;99053.88;5045430;27;103175;-73
2023/07/09 05:33:35;;;;;;;;;;;;;;;22.86;66.55;99057.22;5046742;27;104271;-76
2023/07/09 05:36:03;;;;;;;;;;;;;;;23.10;65.18;99054.34;5066758;27;103183;-74
2023/07/09 05:38:31;;;;;;;;;;;;;;;23.25;64.26;99047.09;5066469;27;102683;-75
2023/07/09 05:41:02;;;;;;;;;;;;;;;23.30;65.42;99044.69;5044446;27;103906;-75
2023/07/09 05:43:30;;;;;;;;;;;;;;;23.29;65.34;99051.13;5049215;27;103401;-75
2023/07/09 05:45:57;;;;;;;;;;;;;;;23.32;65.16;99048.06;5063035;27;103128;-68
2023/07/09 05:48:25;;;;;;;;;;;;;;;23.49;64.55;99046.06;5063499;27;103457;-72
2023/07/09 05:51:00;;;;;;;;;;;;;;;23.63;63.93;99046.06;5062483;27;104237;-72
2023/07/09 05:53:28;;;;;;;;;;;;;;;23.69;64.25;99044.50;5061623;27;103960;-73
2023/07/09 05:55:56;;;;;;;;;;;;;;;23.80;63.75;99051.28;5066443;27;102915;-73
2023/07/09 05:58:24;;;;;;;;;;;;;;;23.93;63.21;99046.91;5053893;27;102774;-74
2023/07/09 06:00:53;;;;;;;;;;;;;;;23.98;63.70;99052.56;5049579;27;102794;-78
2023/07/09 06:03:21;;;;;;;;;;;;;;;24.04;62.99;99059.09;5054093;27;103320;-77
2023/07/09 06:05:49;;;;;;;;;;;;;;;24.27;62.00;99050.91;5061775;27;103207;-81
2023/07/09 06:08:17;;;;;;;;;;;;;;;24.26;62.20;99052.75;5066672;27;103787;-74
2023/07/09 06:10:51;;;;;;;;;;;;;;;24.30;61.70;99051.38;5063430;27;102894;-75
2023/07/09 06:13:19;;;;;;;;;;;;;;;24.46;61.17;99052.97;5049994;27;104387;-79
2023/07/09 06:15:49;;;;;;;;;;;;;;;24.56;61.24;99053.53;5043079;27;103163;-77
2023/07/09 06:18:16;;;;;;;;;;;;;;;24.55;60.99;99057.25;5047519;27;102923;-77
2023/07/09 06:20:47;;;;;;;;;;;;;;;24.46;61.28;99053.81;5064445;27;104035;-77
2023/07/09 06:23:15;;;;;;;;;;;;;;;24.77;60.26;99053.53;5051871;27;103423;-79
2023/07/09 06:25:43;;;;;;;;;;;;;;;24.97;61.17;99056.47;5064303;27;102651;-78
2023/07/09 06:28:10;;;;;;;;;;;;;;;25.01;60.18;99063.16;5042364;27;102677;-78
2023/07/09 06:30:39;;;;;;;;;;;;;;;25.16;59.25;99062.03;5044527;27;104099;-75
2023/07/09 06:33:11;;;;;;;;;;;;;;;25.16;58.66;99067.44;5040478;27;103265;-77
2023/07/09 06:35:39;;;;;;;;;;;;;;;25.16;59.08;99056.63;5043949;27;103143;-78
2023/07/09 06:38:07;;;;;;;;;;;;;;;25.18;59.03;99064.56;5065515;27;102798;-77
2023/07/09 06:40:35;;;;;;;;;;;;;;;25.50;57.71;99053.19;5062119;27;102614;-82
2023/07/09 06:43:02;;;;;;;;;;;;;;;25.47;57.99;99059.00;5044975;27;103821;-79
2023/07/09 06:45:36;;;;;;;;;;;;;;;25.66;58.24;99057.44;5044456;27;103282;-81
2023/07/09 06:48:04;;;;;;;;;;;;;;;25.86;56.92;99064.66;5052310;27;102773;-82
2023/07/09 06:50:35;;;;;;;;;;;;;;;25.99;57.14;99052.25;5046165;27;102753;-79
2023/07/09 06:53:03;;;;;;;;;;;;;;;26.22;56.66;99052.78;5066002;27;103265;-76
2023/07/09 06:55:31;;;;;;;;;;;;;;;26.33;56.45;99060.34;5038060;27;103234;-79
2023/07/09 06:57:58;;;;;;;;;;;;;;;26.41;55.28;99052.84;5059139;27;102679;-80
2023/07/09 07:00:26;;;;;;;;;;;;;;;26.60;54.94;99061.25;5045231;27;103081;-81
2023/07/09 07:02:54;;;;;;;;;;;;;;;26.71;55.54;99058.78;5054018;27;104019;-77
2023/07/09 07:05:37;;;;;;;;;;;;;;;26.44;53.80;99057.06;5041036;27;103417;-76
2023/07/09 07:08:07;;;;;;;;;;;;;;;26.74;54.39;99063.81;5060224;27;102735;-76
2023/07/09 07:10:40;;;;;;;;;;;;;;;27.04;52.69;99059.72;5060774;27;102740;-76
2023/07/09 07:13:13;;;;;;;;;;;;;;;27.75;51.58;99057.22;5065051;27;103983;-76
2023/07/09 07:15:45;;;;;;;;;;;;;;;27.69;52.09;99063.47;5064948;27;103256;-75
2023/07/09 07:18:15;;;;;;;;;;;;;;;27.76;51.90;99058.03;5063006;27;102733;-76
2023/07/09 07:20:44;;;;;;;;;;;;;;;27.51;52.28;99055.97;5063989;27;103421;-76
2023/07/09 07:23:13;;;;;;;;;;;;;;;27.85;51.85;99059.47;5059705;27;103300;-76
2023/07/09 07:25:42;;;;;;;;;;;;;;;27.85;51.54;99054.88;5048159;27;103189;-76
2023/07/09 07:28:10;;;;;;;;;;;;;;;27.58;50.50;99058.69;5066192;27;102721;-76
2023/07/09 07:30:38;;;;;;;;;;;;;;;27.92;50.92;99047.56;5052762;27;102863;-75
2023/07/09 07:33:14;;;;;;;;;;;;;;;28.30;51.31;99047.66;5071676;27;103252;-76
2023/07/09 07:35:47;;;;;;;;;;;;;;;28.39;51.33;99053.66;5057718;27;103777;-75
2023/07/09 07:38:36;;;;;;;;;;;;;;;28.65;49.68;99043.53;5039276;27;103024;-74
2023/07/09 07:41:04;;;;;;;;;;;;;;;28.98;48.49;99037.88;5058660;27;102699;-76
2023/07/09 07:43:32;;;;;;;;;;;;;;;28.96;47.65;99045.44;5041756;27;104255;-75
2023/07/09 07:45:59;;;;;;;;;;;;;;;29.49;47.33;99045.84;5058888;27;103158;-75
2023/07/09 07:48:27;;;;;;;;;;;;;;;29.76;47.56;99040.97;5062367;27;102709;-75
2023/07/09 07:50:59;;;;;;;;;;;;;;;29.82;47.54;99040.09;5054320;27;102783;-74
2023/07/09 07:53:29;;;;;;;;;;;;;;;30.15;46.93;99040.56;5041650;27;104272;-75
2023/07/09 07:56:07;;;;;;;;;;;;;;;30.33;46.31;99034.25;5037150;27;102746;-75
2023/07/09 07:58:35;;;;;;;;;;;;;;;30.69;44.34;99030.66;5044361;27;102708;-75
2023/07/09 08:01:03;;;;;;;;;;;;;;;31.16;43.90;99027.00;5046605;27;102790;-75
2023/07/09 08:03:33;;;;;;;;;;;;;;;31.07;43.63;99027.59;5062850;27;103042;-74
2023/07/09 08:06:01;;;;;;;;;;;;;;;30.91;44.41;99026.31;5058869;27;103184;-74
2023/07/09 08:08:31;;;;;;;;;;;;;;;31.45;43.93;99019.78;5054587;27;102647;-75
2023/07/09 08:11:04;;;;;;;;;;;;;;;31.94;42.47;99022.06;5059981;27;102702;-74
2023/07/09 08:13:34;;;;;;;;;;;;;;;32.18;41.43;99020.13;5058614;27;103275;-74
2023/07/09 08:16:01;;;;;;;;;;;;;;;31.67;40.96;99029.06;5057211;27;103860;-74
2023/07/09 08:18:30;;;;;;;;;;;;;;;31.18;43.16;99024.88;5036038;27;103077;-73
2023/07/09 08:20:59;;;;;;;;;;;;;;;31.18;41.09;99024.88;5059211;27;104120;-73
2023/07/09 08:23:26;;;;;;;;;;;;;;;32.03;40.39;99019.78;5038493;27;104241;-73
2023/07/09 08:25:54;;;;;;;;;;;;;;;32.91;39.79;99013.88;5058731;27;103199;-73
2023/07/09 08:28:22;;;;;;;;;;;;;;;33.38;39.14;99009.78;5045408;27;103365;-73
2023/07/09 08:30:53;;;;;;;;;;;;;;;34.06;38.44;99011.31;5058974;27;102672;-73
2023/07/09 08:33:21;;;;;;;;;;;;;;;31.92;38.72;99023.34;5058349;27;106998;-72
2023/07/09 08:35:50;;;;;;;;;;;;;;;32.87;37.21;99018.19;5061042;27;103243;-73
2023/07/09 08:38:18;;;;;;;;;;;;;;;34.05;36.72;99017.91;5033146;27;102786;-73
2023/07/09 08:40:51;;;;;;;;;;;;;;;33.69;35.80;99011.91;5046257;27;103865;-73
2023/07/09 08:43:23;;;;;;;;;;;;;;;34.62;36.67;99013.69;5048252;27;103305;-72
2023/07/09 08:45:58;;;;;;;;;;;;;;;34.17;37.64;99013.97;5057150;27;103167;-74
2023/07/09 08:48:29;;;;;;;;;;;;;;;33.19;37.59;99014.69;5056176;27;102755;-76
2023/07/09 08:50:59;;;;;;;;;;;;;;;33.23;37.29;99012.28;5063514;27;102650;-75
2023/07/09 08:53:32;;;;;;;;;;;;;;;34.40;36.00;99007.38;5060909;27;103045;-77
2023/07/09 08:56:00;;;;;;;;;;;;;;;35.18;34.31;99008.72;5031630;27;103137;-74
2023/07/09 08:58:29;;;;;;;;;;;;;;;34.93;34.27;99018.38;5066112;27;102739;-76
2023/07/09 09:01:00;;;;;;;;;;;;;;;34.41;36.80;99009.03;5067794;27;102703;-76
2023/07/09 09:03:31;;;;;;;;;;;;;;;35.21;36.09;99013.72;5047564;27;103342;-79
2023/07/09 09:05:59;;;;;;;;;;;;;;;35.28;35.43;99017.91;5048945;27;103194;-79
2023/07/09 09:08:34;;;;;;;;;;;;;;;33.25;35.27;99016.44;5043057;27;102952;-78
2023/07/09 09:11:09;;;;;;;;;;;;;;;33.88;36.85;99026.16;5058226;27;102711;-82
2023/07/09 09:13:38;;;;;;;;;;;;;;;34.70;34.62;99017.88;5051288;27;103373;-80
2023/07/09 09:16:23;;;;;;;;;;;;;;;35.57;33.63;99018.41;5041002;27;104973;-79
2023/07/09 09:18:51;;;;;;;;;;;;;;;35.31;33.04;99013.81;5039860;27;103101;-79
2023/07/09 09:21:24;;;;;;;;;;;;;;;35.72;34.23;99013.00;5039471;27;102800;-79
2023/07/09 09:23:53;;;;;;;;;;;;;;;36.39;36.77;99009.47;5035251;27;104122;-79
2023/07/09 09:26:23;;;;;;;;;;;;;;;36.48;34.24;99002.38;5049699;27;104216;-79
2023/07/09 09:28:52;;;;;;;;;;;;;;;36.90;31.40;99014.03;5044445;27;103827;-82
2023/07/09 09:31:25;;;;;;;;;;;;;;;36.27;32.57;99000.66;5058800;27;102639;-82
2023/07/09 09:33:53;;;;;;;4.70;3.97;;;;;;;37.51;30.31;99005.81;5045498;27;104349;-82
2023/07/09 09:36:23;;;;;;;6.32;4.40;;;;;;;37.18;31.98;98996.19;5065348;27;102819;-78
2023/07/09 09:38:51;;;;;;;3.87;3.50;;;;;;;37.15;31.67;98992.06;5062464;27;102704;-74
2023/07/09 09:41:21;;;;;;;4.30;3.90;;;;;;;37.18;32.92;98996.19;5065166;27;104142;-78
2023/07/09 09:43:52;;;;;;;5.57;3.88;;;;;;;37.65;32.56;98995.88;5043801;27;103852;-77
2023/07/09 09:46:21;;;;;;;5.50;4.23;;;;;;;38.14;31.18;98998.78;5059582;27;103165;-80
2023/07/09 09:48:55;;;;;;;4.40;4.00;;;;;;;38.68;32.42;99004.31;5056285;27;103085;-80
2023/07/09 09:51:24;;;;;;;5.53;4.50;;;;;;;39.00;28.56;99007.41;5038013;27;103911;-78
2023/07/09 09:53:57;;;;;;;4.75;3.88;;;;;;;39.60;28.93;99011.63;5060512;27;104259;-81
2023/07/09 09:56:28;;;;;;;4.00;3.70;;;;;;;39.42;28.94;99010.41;5059336;27;103444;-81
2023/07/09 09:58:58;;;;;;;5.13;4.10;;;;;;;38.06;28.83;98993.84;5044959;27;102861;-75
2023/07/09 10:01:30;;;;;;;3.90;3.38;;;;;;;39.53;29.24;98994.53;5062373;27;102869;-80
2023/07/09 10:04:01;;;;;;;5.03;4.28;;;;;;;39.41;31.46;98989.41;5063570;27;104510;-77
2023/07/09 10:06:37;;;;;;;6.93;4.25;;;;;;;38.88;29.67;98995.91;5040986;27;103286;-78
2023/07/09 10:09:15;;;;;;;4.53;4.03;;;;;;;39.35;28.57;98982.28;5061474;27;102742;-78
2023/07/09 10:11:47;;;;;;;3.83;3.42;;;;;;;40.32;28.48;98980.09;5060743;27;102954;-75
2023/07/09 10:14:35;;;;;;;3.95;3.53;;;;;;;40.13;28.70;98959.88;5064837;27;103440;-78
2023/07/09 10:17:15;;;;;;;3.55;3.25;;;;;;;39.17;27.83;98969.16;5051075;27;103201;-78
2023/07/09 10:19:57;;;;;;;3.92;3.10;;;;;;;39.34;26.09;98972.34;5059417;27;102660;-72
2023/07/09 10:22:42;;;;;;;4.95;4.13;;;;;;;38.82;26.02;98964.75;5059139;27;103696;-76
2023/07/09 10:25:24;;;;;;;3.90;3.30;;;;;;;40.11;25.89;98969.59;5056762;27;104149;-77
2023/07/09 10:28:07;;;;;;;5.65;3.55;;;;;;;40.35;26.04;98965.66;5040863;27;103553;-75
2023/07/09 10:30:43;;;;;;;3.60;3.30;;;;;;;40.14;25.15;98958.78;5038269;27;103101;-76
2023/07/09 10:33:14;;;;;;;3.60;3.30;;;;;;;40.61;24.04;98960.63;5045203;27;102838;-75
2023/07/09 10:35:52;;;;;;;4.68;3.50;;;;;;;37.78;26.47;98956.72;5040482;27;104151;-74
2023/07/09 10:38:41;;;;;;;3.20;2.80;;;;;;;39.99;24.69;98947.88;5055407;27;103308;-75
2023/07/09 10:41:13;;;;;;;5.75;3.45;;;;;;;39.70;25.46;98949.88;5055486;27;102849;-78
2023/07/09 10:43:58;;;;;;;5.85;3.72;;;;;;;39.65;24.07;98941.66;5034089;27;103049;-78
2023/07/09 10:46:29;;;;;;;3.53;3.00;;;;;;;40.47;24.30;98949.44;5056355;27;103307;-77
2023/07/09 10:48:59;;;;;;;6.95;3.72;;;;;;;39.57;23.44;98954.16;5052276;27;103215;-77
2023/07/09 10:51:38;;;;;;;3.67;3.10;;;;;;;40.62;24.33;98937.31;5038735;27;102821;-78
2023/07/09 10:54:16;;;;;;;6.28;3.53;;;;;;;40.65;23.63;98938.69;5045276;27;103050;-79
2023/07/09 10:56:50;;;;;;;5.32;3.55;;;;;;;39.66;23.72;98937.78;5044929;27;103360;-79
2023/07/09 10:59:23;;;;;;;5.63;3.42;;;;;;;38.37;24.04;98925.59;5059153;27;103347;-79
2023/07/09 11:01:59;;;;;;;5.50;3.58;;;;;;;39.88;24.76;98935.28;5048198;27;102884;-76
2023/07/09 11:04:34;;;;;;;5.72;3.90;;;;;;;39.68;23.18;98930.84;5056563;27;103883;-75
2023/07/09 11:07:07;;;;;;;6.03;3.72;;;;;;;39.77;24.08;98922.72;5059480;27;104232;-74
2023/07/09 11:09:40;;;;;;;4.30;3.75;;;;;;;39.48;23.00;98925.50;5052950;27;103327;-73
2023/07/09 11:12:14;;;;;;;4.95;3.67;;;;;;;39.90;23.08;98925.56;5032918;27;102961;-75
2023/07/09 11:14:48;;;;;;;5.57;4.70;;;;;;;39.41;23.80;98923.06;5061851;27;104014;-78
2023/07/09 11:17:20;;;;;;;5.72;3.90;;;;;;;38.89;23.58;98913.91;5057822;27;103461;-80
2023/07/09 11:19:49;;;;;;;4.03;3.47;;;;;;;36.89;25.38;98915.19;5036883;27;103200;-75
2023/07/09 11:22:23;;;;;;;4.25;3.38;;;;;;;39.49;24.38;98918.03;5057626;27;103030;-83
2023/07/09 11:24:55;;;;;;;4.15;3.55;;;;;;;39.63;23.13;98928.09;5057653;27;103868;-80
2023/07/09 11:27:25;;;;;;;3.92;3.50;;;;;;;39.81;22.21;98918.22;5042786;27;103388;-80
2023/07/09 11:30:01;;;;;;;5.93;4.70;;;;;;;37.99;23.94;98911.41;5033475;27;104288;-73
2023/07/09 11:32:29;;;;;;;4.18;3.58;;;;;;;39.05;23.37;98910.69;5057346;27;103682;-74
2023/07/09 11:35:08;;;;;;;4.20;3.50;;;;;;;40.33;22.44;98904.28;5063224;27;104269;-78
2023/07/09 11:37:46;;;;;;;3.60;3.30;;;;;;;40.91;22.63;98915.84;5059759;27;103287;-81
2023/07/09 11:40:18;;;;;;;4.47;3.20;;;;;;;41.38;22.08;98905.63;5034267;27;104342;-82
2023/07/09 11:42:53;;;;;;;4.60;3.90;;;;;;;40.45;21.92;98906.59;5056993;27;102605;-77
2023/07/09 11:45:26;;;;;;;6.13;4.25;;;;;;;41.21;20.17;98902.59;5055590;27;104118;-76
2023/07/09 11:48:03;;;;;;;6.63;4.40;;;;;;;40.01;20.67;98906.06;5026126;27;104185;-74
2023/07/09 11:50:35;;;;;;;7.78;4.68;;;;;;;41.00;19.95;98904.91;5053730;27;103223;-77
2023/07/09 11:53:17;;;;;;;4.55;4.10;;;;;;;40.63;21.02;98904.94;5041011;27;102852;-78
2023/07/09 11:55:47;;;;;;;6.03;4.20;;;;;;;40.70;21.69;98899.84;5026493;27;103630;-81
2023/07/09 11:58:17;;;;;;;5.57;4.10;;;;;;;39.77;21.93;98895.06;5050154;27;104746;-78
2023/07/09 12:00:48;;;;;;;5.60;4.00;;;;;;;40.87;21.23;98900.13;5060597;27;103548;-77
2023/07/09 12:03:20;;;;;;;5.50;3.92;;;;;;;41.36;20.57;98894.81;5042962;27;102815;-77
2023/07/09 12:05:52;;;;;;;6.25;4.38;;;;;;;40.68;19.84;98888.25;5052285;27;103810;-77
2023/07/09 12:08:28;;;;;;;5.60;4.28;;;;;;;41.60;20.31;98895.44;5059522;27;103948;-78
2023/07/09 12:10:56;;;;;;;5.10;4.47;;;;;;;40.85;20.68;98888.50;5061227;27;103217;-79
2023/07/09 12:13:23;;;;;;;5.43;3.92;;;;;;;40.76;20.85;98882.03;5047979;27;103109;-77
2023/07/09 12:15:52;;;;;;;5.00;4.13;;;;;;;39.45;22.19;98881.03;5042120;27;104237;-76
2023/07/09 12:18:19;;;;;;;5.53;4.15;;;;;;;41.06;21.71;98885.13;5057534;27;105444;-75
2023/07/09 12:20:51;;;;;;;5.27;4.20;;;;;;;41.20;18.77;98868.50;5047823;27;103467;-74
2023/07/09 12:23:28;;;;;;;5.53;4.27;;;;;;;40.92;20.25;98866.81;5031703;27;102873;-74
2023/07/09 12:26:01;;;;;;;6.90;4.27;;;;;;;40.16;21.38;98868.00;5055937;27;102805;-75
2023/07/09 12:28:30;;;;;;;7.38;4.30;;;;;;;40.76;20.42;98865.41;5057138;27;104225;-75
2023/07/09 12:30:58;;;;;;;6.50;4.30;;;;;;;41.44;20.58;98869.16;5054895;27;103175;-80
2023/07/09 12:33:27;;;;;;;5.18;4.38;;;;;;;40.66;20.26;98871.94;5041399;27;102664;-78